Hallandale, FL (33008)

5:47 PM EDT on September 18, 2014 (GMT -0400)
Hollywood (City Hall area) | Change Station
CLOSE
Current Station
Personal Weather Station
Location: Hollywood, FL
Elevation: 39 ft
Nearby Weather Stations

Elev 39 ft 26.01 °N, 80.16 °W | Updated 32 seconds ago

Overcast
Overcast
84.7 °F
Feels Like 95 °F
N
2.0
Wind Variable Wind from ESE
Gusts 4.0 mph

Today
High -- | Low -- °F
--% Chance of Precip.
Yesterday
High -- | Low -- °F
Precip. -- in
7:07 AM 7:21 PM
Waning Crescent, 24% visible
Pressure 29.87 in
Visibility 10.0 miles
Clouds Few 2900 ft
Few 4000 ft
Scattered Clouds 6000 ft
Mostly Cloudy 25000 ft
Heat Index 95 °F
Dew Point 77 °F
Humidity 78%
Rainfall 0.43 in
Snow Depth Not available.
UV 2 out of 12
Pollen 3.20 out of 12
Air Quality Not available.
Flu Activity Not available.
METAR KFLL 182053Z 14012KT 10SM FEW029 FEW040 SCT060 BKN250 29/23 A2987 RMK AO2 RAB1957E16 TSE17 SLP113 P0001 60001 T02890233 58011

More Conditions Fewer Conditions

Pressure 29.87 in
Visibility 10.0 miles
Clouds Few 2900 ft
Few 4000 ft
Scattered Clouds 6000 ft
Mostly Cloudy 25000 ft
Heat Index 95 °F
Dew Point 77 °F
Humidity 78%
Rainfall 0.43 in
Snow Depth Not available.
UV 2 out of 12
Pollen 3.20 out of 12
Air Quality Not available.
Flu Activity Not available.
METAR KFLL 182053Z 14012KT 10SM FEW029 FEW040 SCT060 BKN250 29/23 A2987 RMK AO2 RAB1957E16 TSE17 SLP113 P0001 60001 T02890233 58011

More Conditions Fewer Conditions

10-Day Weather Forecast

Almanac

Astronomy

Sep. 18, 2014 Rise Set
Actual Time 7:07 AM EDT 7:21 PM EDT
Civil Twilight 6:44 AM EDT 7:44 PM EDT
Nautical Twilight 6:17 AM EDT 8:11 PM EDT
Astronomical Twilight 5:50 AM EDT 8:38 PM EDT
Moon 2:20 AM EDT 3:50 PM EDT
Length of Visible Light 12h 59m
Length of Day
12h 13m
Tomorrow will be 1m 31s shorter.
Waning Crescent, 24% of the Moon is Illuminated
Today
Waning Crescent
Sep 24
New
Oct 1
First Quarter
Oct 8
Full
Oct 15
Last Quarter

Today's Extremes

State Highs State Lows

Community

WunderPhotos

Upload Photos

1,754,452 photos uploaded!

WunderBlogs® & News

Nearby

Air Quality

  Air Quality AQ Index Pollutant
Yesterday Good
OZONE
Thursday Good
OZONE
Thursday Good
PM2.5
Friday Good
OZONE
Friday Good
PM2.5
Saturday Good
OZONE
Saturday Good
PM2.5
Sunday Good
OZONE
Sunday Good
PM2.5

Snow Depth

Station Depth Elevation
No new snow has been reported.

Earthquake Activity

City Distance Mag. Time & Date
No recent earthquake activity has been reported nearby.
Minimum magnitude displayed is 2.5.

Coastal Water Temperatures

Place Temperature
Virginia Key, FL 86.0 °F

Nearby Weather Stations